sensor_id;sensor_type;location;lat;lon;timestamp;P1;durP1;ratioP1;P2;durP2;ratioP2
22543;SDS011;11438;52.044;8.716;2023-05-19T00:01:56;3.53;;;1.58;;
22543;SDS011;11438;52.044;8.716;2023-05-19T00:04:24;2.80;;;1.65;;
22543;SDS011;11438;52.044;8.716;2023-05-19T00:06:51;3.33;;;1.48;;
22543;SDS011;11438;52.044;8.716;2023-05-19T00:09:18;4.40;;;1.67;;
22543;SDS011;11438;52.044;8.716;2023-05-19T00:11:43;2.55;;;1.52;;
22543;SDS011;11438;52.044;8.716;2023-05-19T00:14:09;2.53;;;1.42;;
22543;SDS011;11438;52.044;8.716;2023-05-19T00:16:35;3.47;;;1.50;;
22543;SDS011;11438;52.044;8.716;2023-05-19T00:19:04;3.55;;;1.60;;
22543;SDS011;11438;52.044;8.716;2023-05-19T00:21:30;2.13;;;1.40;;
22543;SDS011;11438;52.044;8.716;2023-05-19T00:23:56;5.03;;;1.63;;
22543;SDS011;11438;52.044;8.716;2023-05-19T00:26:23;3.63;;;1.50;;
22543;SDS011;11438;52.044;8.716;2023-05-19T00:28:51;4.60;;;1.50;;
22543;SDS011;11438;52.044;8.716;2023-05-19T00:31:17;2.70;;;1.40;;
22543;SDS011;11438;52.044;8.716;2023-05-19T00:33:42;1.92;;;1.27;;
22543;SDS011;11438;52.044;8.716;2023-05-19T00:36:08;5.72;;;1.73;;
22543;SDS011;11438;52.044;8.716;2023-05-19T00:38:34;4.00;;;1.75;;
22543;SDS011;11438;52.044;8.716;2023-05-19T00:41:01;4.68;;;1.40;;
22543;SDS011;11438;52.044;8.716;2023-05-19T00:43:28;1.85;;;1.27;;
22543;SDS011;11438;52.044;8.716;2023-05-19T00:45:54;4.18;;;1.55;;
22543;SDS011;11438;52.044;8.716;2023-05-19T00:48:20;3.67;;;1.30;;
22543;SDS011;11438;52.044;8.716;2023-05-19T00:50:46;2.22;;;1.35;;
22543;SDS011;11438;52.044;8.716;2023-05-19T00:53:13;3.60;;;1.40;;
22543;SDS011;11438;52.044;8.716;2023-05-19T00:55:41;5.35;;;1.63;;
22543;SDS011;11438;52.044;8.716;2023-05-19T00:58:07;2.63;;;1.30;;
22543;SDS011;11438;52.044;8.716;2023-05-19T01:00:34;2.08;;;1.08;;
22543;SDS011;11438;52.044;8.716;2023-05-19T01:03:00;3.38;;;1.55;;
22543;SDS011;11438;52.044;8.716;2023-05-19T01:05:26;3.40;;;1.50;;
22543;SDS011;11438;52.044;8.716;2023-05-19T01:07:52;3.55;;;1.20;;
22543;SDS011;11438;52.044;8.716;2023-05-19T01:10:20;5.80;;;1.58;;
22543;SDS011;11438;52.044;8.716;2023-05-19T01:12:46;2.85;;;1.70;;
22543;SDS011;11438;52.044;8.716;2023-05-19T01:15:12;2.83;;;1.42;;
22543;SDS011;11438;52.044;8.716;2023-05-19T01:20:18;2.10;;;1.27;;
22543;SDS011;11438;52.044;8.716;2023-05-19T01:28:01;2.63;;;1.40;;
22543;SDS011;11438;52.044;8.716;2023-05-19T01:30:56;3.47;;;1.42;;
22543;SDS011;11438;52.044;8.716;2023-05-19T01:33:23;3.63;;;1.67;;
22543;SDS011;11438;52.044;8.716;2023-05-19T01:35:50;3.55;;;1.67;;
22543;SDS011;11438;52.044;8.716;2023-05-19T01:38:18;3.22;;;1.40;;
22543;SDS011;11438;52.044;8.716;2023-05-19T01:40:44;2.28;;;1.65;;
22543;SDS011;11438;52.044;8.716;2023-05-19T01:43:14;2.58;;;1.50;;
22543;SDS011;11438;52.044;8.716;2023-05-19T01:45:43;2.95;;;1.40;;
22543;SDS011;11438;52.044;8.716;2023-05-19T01:48:09;4.78;;;1.55;;
22543;SDS011;11438;52.044;8.716;2023-05-19T01:50:36;2.70;;;1.55;;
22543;SDS011;11438;52.044;8.716;2023-05-19T01:53:02;3.65;;;1.35;;
22543;SDS011;11438;52.044;8.716;2023-05-19T01:55:27;2.75;;;1.50;;
22543;SDS011;11438;52.044;8.716;2023-05-19T01:58:06;2.17;;;1.27;;
22543;SDS011;11438;52.044;8.716;2023-05-19T02:00:53;3.40;;;1.40;;
22543;SDS011;11438;52.044;8.716;2023-05-19T02:03:31;5.00;;;1.60;;
22543;SDS011;11438;52.044;8.716;2023-05-19T02:11:55;2.90;;;1.48;;
22543;SDS011;11438;52.044;8.716;2023-05-19T02:15:04;3.00;;;1.50;;
22543;SDS011;11438;52.044;8.716;2023-05-19T02:17:45;2.30;;;1.40;;
22543;SDS011;11438;52.044;8.716;2023-05-19T02:20:15;3.10;;;1.70;;
22543;SDS011;11438;52.044;8.716;2023-05-19T02:22:41;2.88;;;1.50;;
22543;SDS011;11438;52.044;8.716;2023-05-19T02:25:08;2.97;;;1.40;;
22543;SDS011;11438;52.044;8.716;2023-05-19T02:27:35;4.60;;;1.58;;
22543;SDS011;11438;52.044;8.716;2023-05-19T02:30:04;5.40;;;1.90;;
22543;SDS011;11438;52.044;8.716;2023-05-19T02:32:31;2.65;;;1.80;;
22543;SDS011;11438;52.044;8.716;2023-05-19T02:34:57;4.53;;;2.08;;
22543;SDS011;11438;52.044;8.716;2023-05-19T02:37:22;3.17;;;1.80;;
22543;SDS011;11438;52.044;8.716;2023-05-19T02:39:49;5.72;;;1.73;;
22543;SDS011;11438;52.044;8.716;2023-05-19T02:42:15;2.85;;;1.80;;
22543;SDS011;11438;52.044;8.716;2023-05-19T02:44:42;3.05;;;1.63;;
22543;SDS011;11438;52.044;8.716;2023-05-19T02:47:07;4.47;;;1.83;;
22543;SDS011;11438;52.044;8.716;2023-05-19T02:49:33;5.25;;;1.77;;
22543;SDS011;11438;52.044;8.716;2023-05-19T02:52:00;3.65;;;1.58;;
22543;SDS011;11438;52.044;8.716;2023-05-19T02:54:29;4.88;;;1.95;;
22543;SDS011;11438;52.044;8.716;2023-05-19T02:56:55;3.47;;;1.88;;
22543;SDS011;11438;52.044;8.716;2023-05-19T02:59:21;4.25;;;1.83;;
22543;SDS011;11438;52.044;8.716;2023-05-19T03:01:47;2.78;;;1.40;;
22543;SDS011;11438;52.044;8.716;2023-05-19T03:04:12;3.22;;;1.30;;
22543;SDS011;11438;52.044;8.716;2023-05-19T03:06:38;3.15;;;1.45;;
22543;SDS011;11438;52.044;8.716;2023-05-19T03:09:04;4.10;;;1.55;;
22543;SDS011;11438;52.044;8.716;2023-05-19T03:11:29;4.47;;;1.60;;
22543;SDS011;11438;52.044;8.716;2023-05-19T03:13:55;3.15;;;1.80;;
22543;SDS011;11438;52.044;8.716;2023-05-19T03:16:21;3.28;;;1.60;;
22543;SDS011;11438;52.044;8.716;2023-05-19T03:18:47;2.20;;;1.40;;
22543;SDS011;11438;52.044;8.716;2023-05-19T03:21:12;3.10;;;1.73;;
22543;SDS011;11438;52.044;8.716;2023-05-19T03:23:38;2.78;;;1.40;;
22543;SDS011;11438;52.044;8.716;2023-05-19T03:26:03;3.67;;;1.67;;
22543;SDS011;11438;52.044;8.716;2023-05-19T03:28:29;4.00;;;1.77;;
22543;SDS011;11438;52.044;8.716;2023-05-19T03:30:54;3.13;;;1.48;;
22543;SDS011;11438;52.044;8.716;2023-05-19T03:33:20;3.97;;;1.90;;
22543;SDS011;11438;52.044;8.716;2023-05-19T03:35:45;4.25;;;1.50;;
22543;SDS011;11438;52.044;8.716;2023-05-19T03:38:11;5.82;;;1.85;;
22543;SDS011;11438;52.044;8.716;2023-05-19T03:40:37;4.40;;;1.65;;
22543;SDS011;11438;52.044;8.716;2023-05-19T03:43:02;3.05;;;1.67;;
22543;SDS011;11438;52.044;8.716;2023-05-19T03:45:28;3.97;;;1.92;;
22543;SDS011;11438;52.044;8.716;2023-05-19T03:47:53;4.63;;;1.70;;
22543;SDS011;11438;52.044;8.716;2023-05-19T03:50:19;3.33;;;1.80;;
22543;SDS011;11438;52.044;8.716;2023-05-19T03:52:45;3.72;;;1.98;;
22543;SDS011;11438;52.044;8.716;2023-05-19T03:55:12;3.88;;;2.00;;
22543;SDS011;11438;52.044;8.716;2023-05-19T03:57:41;4.05;;;1.80;;
22543;SDS011;11438;52.044;8.716;2023-05-19T04:00:08;2.50;;;1.60;;
22543;SDS011;11438;52.044;8.716;2023-05-19T04:02:37;4.57;;;1.80;;
22543;SDS011;11438;52.044;8.716;2023-05-19T04:05:03;3.92;;;2.15;;
22543;SDS011;11438;52.044;8.716;2023-05-19T04:07:29;3.47;;;2.05;;
22543;SDS011;11438;52.044;8.716;2023-05-19T04:09:55;3.55;;;1.90;;
22543;SDS011;11438;52.044;8.716;2023-05-19T04:12:21;3.28;;;2.17;;
22543;SDS011;11438;52.044;8.716;2023-05-19T04:14:46;4.43;;;1.92;;
22543;SDS011;11438;52.044;8.716;2023-05-19T04:17:12;4.45;;;2.10;;
22543;SDS011;11438;52.044;8.716;2023-05-19T04:19:37;3.80;;;2.05;;
22543;SDS011;11438;52.044;8.716;2023-05-19T04:22:03;3.13;;;2.10;;
22543;SDS011;11438;52.044;8.716;2023-05-19T04:24:29;4.70;;;2.25;;
22543;SDS011;11438;52.044;8.716;2023-05-19T04:26:54;5.18;;;2.60;;
22543;SDS011;11438;52.044;8.716;2023-05-19T04:29:20;5.25;;;2.28;;
22543;SDS011;11438;52.044;8.716;2023-05-19T04:31:47;3.58;;;1.65;;
22543;SDS011;11438;52.044;8.716;2023-05-19T04:34:13;2.42;;;1.75;;
22543;SDS011;11438;52.044;8.716;2023-05-19T04:36:38;3.47;;;1.67;;
22543;SDS011;11438;52.044;8.716;2023-05-19T04:39:04;4.15;;;2.10;;
22543;SDS011;11438;52.044;8.716;2023-05-19T04:41:32;6.55;;;2.22;;
22543;SDS011;11438;52.044;8.716;2023-05-19T04:43:58;4.88;;;1.65;;
22543;SDS011;11438;52.044;8.716;2023-05-19T04:46:25;2.97;;;1.77;;
22543;SDS011;11438;52.044;8.716;2023-05-19T04:48:51;4.70;;;2.30;;
22543;SDS011;11438;52.044;8.716;2023-05-19T04:51:20;3.58;;;2.25;;
22543;SDS011;11438;52.044;8.716;2023-05-19T04:53:46;4.78;;;2.08;;
22543;SDS011;11438;52.044;8.716;2023-05-19T04:56:13;2.75;;;1.77;;
22543;SDS011;11438;52.044;8.716;2023-05-19T04:58:39;3.67;;;2.20;;
22543;SDS011;11438;52.044;8.716;2023-05-19T05:01:05;4.32;;;2.22;;
22543;SDS011;11438;52.044;8.716;2023-05-19T05:03:33;4.45;;;2.17;;
22543;SDS011;11438;52.044;8.716;2023-05-19T05:05:59;3.38;;;1.85;;
22543;SDS011;11438;52.044;8.716;2023-05-19T05:08:24;4.75;;;2.15;;
22543;SDS011;11438;52.044;8.716;2023-05-19T05:10:51;5.03;;;2.00;;
22543;SDS011;11438;52.044;8.716;2023-05-19T05:13:17;5.38;;;2.60;;
22543;SDS011;11438;52.044;8.716;2023-05-19T05:15:45;3.70;;;2.25;;
22543;SDS011;11438;52.044;8.716;2023-05-19T05:18:11;3.53;;;1.95;;
22543;SDS011;11438;52.044;8.716;2023-05-19T05:20:37;6.43;;;2.67;;
22543;SDS011;11438;52.044;8.716;2023-05-19T05:23:03;5.10;;;2.50;;
22543;SDS011;11438;52.044;8.716;2023-05-19T05:25:29;4.35;;;2.10;;
22543;SDS011;11438;52.044;8.716;2023-05-19T05:27:54;4.18;;;2.45;;
22543;SDS011;11438;52.044;8.716;2023-05-19T05:30:22;5.10;;;2.53;;
22543;SDS011;11438;52.044;8.716;2023-05-19T05:32:47;4.53;;;2.83;;
22543;SDS011;11438;52.044;8.716;2023-05-19T05:35:13;5.55;;;2.75;;
22543;SDS011;11438;52.044;8.716;2023-05-19T05:37:39;5.10;;;2.95;;
22543;SDS011;11438;52.044;8.716;2023-05-19T05:40:04;6.22;;;2.95;;
22543;SDS011;11438;52.044;8.716;2023-05-19T05:42:31;4.97;;;2.95;;
22543;SDS011;11438;52.044;8.716;2023-05-19T05:44:56;5.28;;;3.15;;
22543;SDS011;11438;52.044;8.716;2023-05-19T05:47:22;5.22;;;3.15;;
22543;SDS011;11438;52.044;8.716;2023-05-19T05:49:47;8.02;;;3.40;;
22543;SDS011;11438;52.044;8.716;2023-05-19T05:52:13;7.00;;;3.17;;
22543;SDS011;11438;52.044;8.716;2023-05-19T05:54:40;6.85;;;3.50;;
22543;SDS011;11438;52.044;8.716;2023-05-19T05:57:05;5.78;;;3.55;;
22543;SDS011;11438;52.044;8.716;2023-05-19T05:59:31;6.88;;;3.10;;
22543;SDS011;11438;52.044;8.716;2023-05-19T06:01:57;8.57;;;3.60;;
22543;SDS011;11438;52.044;8.716;2023-05-19T06:04:23;7.30;;;3.45;;
22543;SDS011;11438;52.044;8.716;2023-05-19T06:06:49;6.35;;;3.15;;
22543;SDS011;11438;52.044;8.716;2023-05-19T06:09:16;5.03;;;2.97;;
22543;SDS011;11438;52.044;8.716;2023-05-19T06:11:42;5.60;;;3.55;;
22543;SDS011;11438;52.044;8.716;2023-05-19T06:14:07;8.32;;;3.60;;
22543;SDS011;11438;52.044;8.716;2023-05-19T06:16:33;7.40;;;3.17;;
22543;SDS011;11438;52.044;8.716;2023-05-19T06:18:58;6.75;;;3.40;;
22543;SDS011;11438;52.044;8.716;2023-05-19T06:21:24;4.05;;;2.70;;
22543;SDS011;11438;52.044;8.716;2023-05-19T06:23:49;6.13;;;3.25;;
22543;SDS011;11438;52.044;8.716;2023-05-19T06:26:15;7.50;;;3.58;;
22543;SDS011;11438;52.044;8.716;2023-05-19T06:28:40;7.85;;;3.10;;
22543;SDS011;11438;52.044;8.716;2023-05-19T06:31:06;10.27;;;3.17;;
22543;SDS011;11438;52.044;8.716;2023-05-19T06:33:31;8.07;;;3.40;;
22543;SDS011;11438;52.044;8.716;2023-05-19T06:35:57;6.63;;;3.25;;
22543;SDS011;11438;52.044;8.716;2023-05-19T06:38:23;5.53;;;2.83;;
22543;SDS011;11438;52.044;8.716;2023-05-19T06:40:48;4.95;;;2.40;;
22543;SDS011;11438;52.044;8.716;2023-05-19T06:43:14;6.45;;;3.10;;
22543;SDS011;11438;52.044;8.716;2023-05-19T06:45:39;6.60;;;2.60;;
22543;SDS011;11438;52.044;8.716;2023-05-19T06:48:05;3.40;;;2.50;;
22543;SDS011;11438;52.044;8.716;2023-05-19T06:50:30;5.82;;;2.40;;
22543;SDS011;11438;52.044;8.716;2023-05-19T06:52:56;6.63;;;2.75;;
22543;SDS011;11438;52.044;8.716;2023-05-19T06:55:22;8.05;;;2.78;;
22543;SDS011;11438;52.044;8.716;2023-05-19T06:57:47;4.63;;;2.53;;
22543;SDS011;11438;52.044;8.716;2023-05-19T07:00:13;4.78;;;2.45;;
22543;SDS011;11438;52.044;8.716;2023-05-19T07:02:40;6.70;;;2.38;;
22543;SDS011;11438;52.044;8.716;2023-05-19T07:05:06;5.18;;;2.30;;
22543;SDS011;11438;52.044;8.716;2023-05-19T07:07:32;4.90;;;2.50;;
22543;SDS011;11438;52.044;8.716;2023-05-19T07:09:57;5.35;;;2.30;;
22543;SDS011;11438;52.044;8.716;2023-05-19T07:12:23;7.10;;;2.35;;
22543;SDS011;11438;52.044;8.716;2023-05-19T07:14:50;6.25;;;2.63;;
22543;SDS011;11438;52.044;8.716;2023-05-19T07:17:16;6.93;;;2.72;;
22543;SDS011;11438;52.044;8.716;2023-05-19T07:19:41;7.43;;;2.67;;
22543;SDS011;11438;52.044;8.716;2023-05-19T07:22:07;6.10;;;2.15;;
22543;SDS011;11438;52.044;8.716;2023-05-19T07:24:32;4.63;;;2.30;;
22543;SDS011;11438;52.044;8.716;2023-05-19T07:26:58;6.30;;;2.70;;
22543;SDS011;11438;52.044;8.716;2023-05-19T07:29:23;5.68;;;2.45;;
22543;SDS011;11438;52.044;8.716;2023-05-19T07:31:49;5.45;;;2.40;;
22543;SDS011;11438;52.044;8.716;2023-05-19T07:34:21;8.23;;;2.72;;
22543;SDS011;11438;52.044;8.716;2023-05-19T07:36:47;7.10;;;2.60;;
22543;SDS011;11438;52.044;8.716;2023-05-19T07:39:13;4.45;;;2.20;;
22543;SDS011;11438;52.044;8.716;2023-05-19T07:41:39;5.32;;;2.35;;
22543;SDS011;11438;52.044;8.716;2023-05-19T07:44:04;3.28;;;2.20;;
22543;SDS011;11438;52.044;8.716;2023-05-19T07:46:31;7.43;;;2.65;;
22543;SDS011;11438;52.044;8.716;2023-05-19T07:48:57;5.05;;;1.95;;
22543;SDS011;11438;52.044;8.716;2023-05-19T07:51:23;5.10;;;2.45;;
22543;SDS011;11438;52.044;8.716;2023-05-19T07:53:48;5.38;;;2.30;;
22543;SDS011;11438;52.044;8.716;2023-05-19T07:56:15;5.88;;;2.40;;
22543;SDS011;11438;52.044;8.716;2023-05-19T07:58:40;9.13;;;2.25;;
22543;SDS011;11438;52.044;8.716;2023-05-19T08:01:06;5.18;;;2.00;;
22543;SDS011;11438;52.044;8.716;2023-05-19T08:03:31;10.43;;;2.22;;
22543;SDS011;11438;52.044;8.716;2023-05-19T08:05:57;6.72;;;1.92;;
22543;SDS011;11438;52.044;8.716;2023-05-19T08:08:23;10.23;;;2.22;;
22543;SDS011;11438;52.044;8.716;2023-05-19T08:10:49;6.25;;;1.77;;
22543;SDS011;11438;52.044;8.716;2023-05-19T08:13:14;5.07;;;2.10;;
22543;SDS011;11438;52.044;8.716;2023-05-19T08:15:40;5.40;;;1.92;;
22543;SDS011;11438;52.044;8.716;2023-05-19T08:18:06;5.70;;;1.88;;
22543;SDS011;11438;52.044;8.716;2023-05-19T08:20:32;5.47;;;1.83;;
22543;SDS011;11438;52.044;8.716;2023-05-19T08:22:57;6.53;;;2.22;;
22543;SDS011;11438;52.044;8.716;2023-05-19T08:25:23;5.07;;;1.50;;
22543;SDS011;11438;52.044;8.716;2023-05-19T08:27:49;5.22;;;2.08;;
22543;SDS011;11438;52.044;8.716;2023-05-19T08:30:14;3.13;;;1.50;;
22543;SDS011;11438;52.044;8.716;2023-05-19T08:32:40;6.50;;;1.77;;
22543;SDS011;11438;52.044;8.716;2023-05-19T08:35:06;5.25;;;2.10;;
22543;SDS011;11438;52.044;8.716;2023-05-19T08:37:32;5.10;;;1.65;;
22543;SDS011;11438;52.044;8.716;2023-05-19T08:40:00;4.53;;;1.83;;
22543;SDS011;11438;52.044;8.716;2023-05-19T08:42:28;4.82;;;2.00;;
22543;SDS011;11438;52.044;8.716;2023-05-19T08:44:54;5.65;;;1.58;;
22543;SDS011;11438;52.044;8.716;2023-05-19T08:47:19;2.92;;;1.58;;
22543;SDS011;11438;52.044;8.716;2023-05-19T08:49:46;4.63;;;1.42;;
22543;SDS011;11438;52.044;8.716;2023-05-19T08:55:57;6.78;;;1.63;;
22543;SDS011;11438;52.044;8.716;2023-05-19T08:57:53;4.68;;;1.20;;
22543;SDS011;11438;52.044;8.716;2023-05-19T09:00:19;2.45;;;1.05;;
22543;SDS011;11438;52.044;8.716;2023-05-19T09:02:47;3.30;;;1.10;;
22543;SDS011;11438;52.044;8.716;2023-05-19T09:05:15;5.32;;;1.60;;
22543;SDS011;11438;52.044;8.716;2023-05-19T09:07:42;7.80;;;1.45;;
22543;SDS011;11438;52.044;8.716;2023-05-19T09:10:09;3.78;;;1.50;;
22543;SDS011;11438;52.044;8.716;2023-05-19T09:12:38;2.30;;;1.00;;
22543;SDS011;11438;52.044;8.716;2023-05-19T09:15:04;3.45;;;1.00;;
22543;SDS011;11438;52.044;8.716;2023-05-19T09:17:32;2.70;;;1.27;;
22543;SDS011;11438;52.044;8.716;2023-05-19T09:20:02;4.00;;;1.13;;
22543;SDS011;11438;52.044;8.716;2023-05-19T09:22:45;5.45;;;1.25;;
22543;SDS011;11438;52.044;8.716;2023-05-19T09:25:23;2.38;;;1.10;;
22543;SDS011;11438;52.044;8.716;2023-05-19T09:27:49;4.55;;;1.10;;
22543;SDS011;11438;52.044;8.716;2023-05-19T09:30:15;3.20;;;1.10;;
22543;SDS011;11438;52.044;8.716;2023-05-19T09:32:41;2.92;;;0.93;;
22543;SDS011;11438;52.044;8.716;2023-05-19T09:35:07;6.65;;;1.25;;
22543;SDS011;11438;52.044;8.716;2023-05-19T09:37:33;3.35;;;1.27;;
22543;SDS011;11438;52.044;8.716;2023-05-19T09:39:59;3.90;;;0.90;;
22543;SDS011;11438;52.044;8.716;2023-05-19T09:42:25;4.78;;;0.98;;
22543;SDS011;11438;52.044;8.716;2023-05-19T09:44:58;1.98;;;0.80;;
22543;SDS011;11438;52.044;8.716;2023-05-19T09:47:25;4.28;;;0.88;;
22543;SDS011;11438;52.044;8.716;2023-05-19T09:49:52;2.25;;;0.63;;
22543;SDS011;11438;52.044;8.716;2023-05-19T09:52:17;3.60;;;1.20;;
22543;SDS011;11438;52.044;8.716;2023-05-19T09:54:44;2.50;;;0.90;;
22543;SDS011;11438;52.044;8.716;2023-05-19T09:57:11;1.92;;;0.60;;
22543;SDS011;11438;52.044;8.716;2023-05-19T09:59:36;1.73;;;0.88;;
22543;SDS011;11438;52.044;8.716;2023-05-19T10:02:03;9.02;;;2.90;;
22543;SDS011;11438;52.044;8.716;2023-05-19T10:04:29;3.28;;;0.93;;
22543;SDS011;11438;52.044;8.716;2023-05-19T10:06:56;5.10;;;1.00;;
22543;SDS011;11438;52.044;8.716;2023-05-19T10:09:25;8.80;;;1.10;;
22543;SDS011;11438;52.044;8.716;2023-05-19T10:11:52;3.13;;;1.20;;
22543;SDS011;11438;52.044;8.716;2023-05-19T10:14:22;4.47;;;1.13;;
22543;SDS011;11438;52.044;8.716;2023-05-19T10:16:52;5.03;;;1.40;;
22543;SDS011;11438;52.044;8.716;2023-05-19T10:19:22;3.03;;;1.30;;
22543;SDS011;11438;52.044;8.716;2023-05-19T10:21:50;2.75;;;1.10;;
22543;SDS011;11438;52.044;8.716;2023-05-19T10:24:16;7.10;;;1.00;;
22543;SDS011;11438;52.044;8.716;2023-05-19T10:26:49;3.05;;;1.00;;
22543;SDS011;11438;52.044;8.716;2023-05-19T10:29:24;2.47;;;1.00;;
22543;SDS011;11438;52.044;8.716;2023-05-19T10:31:52;3.55;;;1.08;;
22543;SDS011;11438;52.044;8.716;2023-05-19T10:40:17;6.47;;;1.67;;
22543;SDS011;11438;52.044;8.716;2023-05-19T10:45:32;3.25;;;1.10;;
22543;SDS011;11438;52.044;8.716;2023-05-19T10:48:03;3.17;;;0.90;;
22543;SDS011;11438;52.044;8.716;2023-05-19T10:50:34;2.95;;;1.02;;
22543;SDS011;11438;52.044;8.716;2023-05-19T10:53:01;5.40;;;1.20;;
22543;SDS011;11438;52.044;8.716;2023-05-19T10:58:35;3.88;;;1.77;;
22543;SDS011;11438;52.044;8.716;2023-05-19T11:01:13;6.82;;;1.33;;
22543;SDS011;11438;52.044;8.716;2023-05-19T11:03:46;2.92;;;1.17;;
22543;SDS011;11438;52.044;8.716;2023-05-19T11:06:45;2.53;;;1.00;;
22543;SDS011;11438;52.044;8.716;2023-05-19T11:09:08;2.03;;;0.90;;
22543;SDS011;11438;52.044;8.716;2023-05-19T11:11:46;2.50;;;1.00;;
22543;SDS011;11438;52.044;8.716;2023-05-19T11:14:17;2.95;;;0.90;;
22543;SDS011;11438;52.044;8.716;2023-05-19T11:16:47;3.58;;;1.00;;
22543;SDS011;11438;52.044;8.716;2023-05-19T11:19:27;2.08;;;1.10;;
22543;SDS011;11438;52.044;8.716;2023-05-19T11:21:54;1.17;;;0.70;;
22543;SDS011;11438;52.044;8.716;2023-05-19T11:29:52;2.88;;;0.95;;
22543;SDS011;11438;52.044;8.716;2023-05-19T11:32:20;2.42;;;0.90;;
22543;SDS011;11438;52.044;8.716;2023-05-19T11:34:46;2.80;;;1.02;;
22543;SDS011;11438;52.044;8.716;2023-05-19T11:37:13;2.03;;;1.05;;
22543;SDS011;11438;52.044;8.716;2023-05-19T11:39:39;2.55;;;1.10;;
22543;SDS011;11438;52.044;8.716;2023-05-19T11:42:05;2.55;;;1.00;;
22543;SDS011;11438;52.044;8.716;2023-05-19T11:44:33;2.28;;;1.10;;
22543;SDS011;11438;52.044;8.716;2023-05-19T11:46:59;2.30;;;1.02;;
22543;SDS011;11438;52.044;8.716;2023-05-19T11:49:26;1.58;;;0.70;;
22543;SDS011;11438;52.044;8.716;2023-05-19T11:51:52;1.67;;;1.08;;
22543;SDS011;11438;52.044;8.716;2023-05-19T11:54:18;2.03;;;1.00;;
22543;SDS011;11438;52.044;8.716;2023-05-19T11:56:44;2.05;;;1.17;;
22543;SDS011;11438;52.044;8.716;2023-05-19T11:59:09;4.30;;;1.20;;
22543;SDS011;11438;52.044;8.716;2023-05-19T12:01:35;2.10;;;0.98;;
22543;SDS011;11438;52.044;8.716;2023-05-19T12:04:01;3.42;;;1.20;;
22543;SDS011;11438;52.044;8.716;2023-05-19T12:06:32;1.83;;;0.93;;
22543;SDS011;11438;52.044;8.716;2023-05-19T12:08:58;3.63;;;1.20;;
22543;SDS011;11438;52.044;8.716;2023-05-19T12:11:24;3.10;;;1.35;;
22543;SDS011;11438;52.044;8.716;2023-05-19T12:13:51;4.22;;;1.10;;
22543;SDS011;11438;52.044;8.716;2023-05-19T12:16:22;2.90;;;1.20;;
22543;SDS011;11438;52.044;8.716;2023-05-19T12:18:47;6.20;;;1.38;;
22543;SDS011;11438;52.044;8.716;2023-05-19T12:21:13;2.65;;;1.20;;
22543;SDS011;11438;52.044;8.716;2023-05-19T12:23:39;4.72;;;1.40;;
22543;SDS011;11438;52.044;8.716;2023-05-19T12:26:06;3.20;;;1.27;;
22543;SDS011;11438;52.044;8.716;2023-05-19T12:28:32;3.38;;;1.38;;
22543;SDS011;11438;52.044;8.716;2023-05-19T12:30:57;2.63;;;1.40;;
22543;SDS011;11438;52.044;8.716;2023-05-19T12:33:23;2.85;;;1.10;;
22543;SDS011;11438;52.044;8.716;2023-05-19T12:35:49;3.55;;;1.52;;
22543;SDS011;11438;52.044;8.716;2023-05-19T12:38:15;3.17;;;1.30;;
22543;SDS011;11438;52.044;8.716;2023-05-19T12:40:43;3.85;;;1.20;;
22543;SDS011;11438;52.044;8.716;2023-05-19T12:43:17;5.85;;;1.40;;
22543;SDS011;11438;52.044;8.716;2023-05-19T12:45:44;3.42;;;1.40;;
22543;SDS011;11438;52.044;8.716;2023-05-19T12:48:10;3.65;;;1.40;;
22543;SDS011;11438;52.044;8.716;2023-05-19T12:50:36;7.07;;;1.40;;
22543;SDS011;11438;52.044;8.716;2023-05-19T12:53:02;3.13;;;1.30;;
22543;SDS011;11438;52.044;8.716;2023-05-19T12:55:35;4.30;;;1.42;;
22543;SDS011;11438;52.044;8.716;2023-05-19T12:58:07;4.22;;;1.10;;
22543;SDS011;11438;52.044;8.716;2023-05-19T13:00:35;3.00;;;1.15;;
22543;SDS011;11438;52.044;8.716;2023-05-19T13:03:17;2.00;;;1.08;;
22543;SDS011;11438;52.044;8.716;2023-05-19T13:05:45;2.88;;;1.10;;
22543;SDS011;11438;52.044;8.716;2023-05-19T13:08:12;2.78;;;1.30;;
22543;SDS011;11438;52.044;8.716;2023-05-19T13:10:41;5.13;;;1.40;;
22543;SDS011;11438;52.044;8.716;2023-05-19T13:13:07;3.90;;;1.60;;
22543;SDS011;11438;52.044;8.716;2023-05-19T13:15:35;2.85;;;1.40;;
22543;SDS011;11438;52.044;8.716;2023-05-19T13:18:03;2.97;;;1.20;;
22543;SDS011;11438;52.044;8.716;2023-05-19T13:20:31;3.25;;;1.00;;
22543;SDS011;11438;52.044;8.716;2023-05-19T13:22:59;5.10;;;1.58;;
22543;SDS011;11438;52.044;8.716;2023-05-19T13:25:25;3.08;;;1.02;;
22543;SDS011;11438;52.044;8.716;2023-05-19T13:27:52;3.22;;;1.00;;
22543;SDS011;11438;52.044;8.716;2023-05-19T13:30:18;2.83;;;1.25;;
22543;SDS011;11438;52.044;8.716;2023-05-19T13:32:45;3.25;;;1.20;;
22543;SDS011;11438;52.044;8.716;2023-05-19T13:35:11;3.03;;;1.35;;
22543;SDS011;11438;52.044;8.716;2023-05-19T13:37:37;3.25;;;1.13;;
22543;SDS011;11438;52.044;8.716;2023-05-19T13:40:05;3.20;;;1.20;;
22543;SDS011;11438;52.044;8.716;2023-05-19T13:42:31;1.65;;;0.90;;
22543;SDS011;11438;52.044;8.716;2023-05-19T13:44:57;5.13;;;1.52;;
22543;SDS011;11438;52.044;8.716;2023-05-19T13:47:23;2.25;;;0.98;;
22543;SDS011;11438;52.044;8.716;2023-05-19T13:49:49;2.28;;;0.90;;
22543;SDS011;11438;52.044;8.716;2023-05-19T13:52:15;2.15;;;0.95;;
22543;SDS011;11438;52.044;8.716;2023-05-19T13:54:40;3.08;;;1.20;;
22543;SDS011;11438;52.044;8.716;2023-05-19T13:57:06;1.85;;;0.80;;
22543;SDS011;11438;52.044;8.716;2023-05-19T13:59:32;2.40;;;1.10;;
22543;SDS011;11438;52.044;8.716;2023-05-19T14:01:58;1.70;;;1.05;;
22543;SDS011;11438;52.044;8.716;2023-05-19T14:04:24;2.90;;;1.20;;
22543;SDS011;11438;52.044;8.716;2023-05-19T14:06:50;2.65;;;0.95;;
22543;SDS011;11438;52.044;8.716;2023-05-19T14:09:15;4.10;;;0.90;;
22543;SDS011;11438;52.044;8.716;2023-05-19T14:11:41;1.27;;;0.80;;
22543;SDS011;11438;52.044;8.716;2023-05-19T14:14:07;2.42;;;1.10;;
22543;SDS011;11438;52.044;8.716;2023-05-19T14:16:32;2.53;;;1.08;;
22543;SDS011;11438;52.044;8.716;2023-05-19T14:18:58;2.25;;;1.00;;
22543;SDS011;11438;52.044;8.716;2023-05-19T14:21:23;1.75;;;1.20;;
22543;SDS011;11438;52.044;8.716;2023-05-19T14:23:49;1.60;;;0.90;;
22543;SDS011;11438;52.044;8.716;2023-05-19T14:26:15;3.15;;;1.20;;
22543;SDS011;11438;52.044;8.716;2023-05-19T14:28:40;1.65;;;0.90;;
22543;SDS011;11438;52.044;8.716;2023-05-19T14:31:12;3.42;;;0.82;;
22543;SDS011;11438;52.044;8.716;2023-05-19T14:33:38;4.18;;;1.67;;
22543;SDS011;11438;52.044;8.716;2023-05-19T14:36:04;2.22;;;0.88;;
22543;SDS011;11438;52.044;8.716;2023-05-19T14:38:30;2.88;;;1.30;;
22543;SDS011;11438;52.044;8.716;2023-05-19T14:40:55;3.10;;;1.10;;
22543;SDS011;11438;52.044;8.716;2023-05-19T14:43:21;1.98;;;1.00;;
22543;SDS011;11438;52.044;8.716;2023-05-19T14:45:47;2.47;;;1.20;;
22543;SDS011;11438;52.044;8.716;2023-05-19T14:48:12;2.63;;;1.38;;
22543;SDS011;11438;52.044;8.716;2023-05-19T14:50:38;1.70;;;1.10;;
22543;SDS011;11438;52.044;8.716;2023-05-19T14:53:04;2.60;;;1.20;;
22543;SDS011;11438;52.044;8.716;2023-05-19T14:55:29;1.73;;;0.98;;
22543;SDS011;11438;52.044;8.716;2023-05-19T14:57:55;1.30;;;0.85;;
22543;SDS011;11438;52.044;8.716;2023-05-19T15:00:20;2.03;;;0.75;;
22543;SDS011;11438;52.044;8.716;2023-05-19T15:02:46;1.67;;;0.95;;
22543;SDS011;11438;52.044;8.716;2023-05-19T15:05:13;1.63;;;0.90;;
22543;SDS011;11438;52.044;8.716;2023-05-19T15:07:38;2.38;;;1.10;;
22543;SDS011;11438;52.044;8.716;2023-05-19T15:10:04;1.88;;;0.80;;
22543;SDS011;11438;52.044;8.716;2023-05-19T15:12:30;3.28;;;1.00;;
22543;SDS011;11438;52.044;8.716;2023-05-19T15:14:55;4.07;;;1.35;;
22543;SDS011;11438;52.044;8.716;2023-05-19T15:17:21;2.42;;;0.98;;
22543;SDS011;11438;52.044;8.716;2023-05-19T15:19:46;2.13;;;1.05;;
22543;SDS011;11438;52.044;8.716;2023-05-19T15:22:12;1.30;;;0.98;;